sensor_id;sensor_type;location;lat;lon;timestamp;P1;durP1;ratioP1;P2;durP2;ratioP2
6356;SDS011;3211;53.452;-2.264;2022-12-31T00:01:51;12.53;;;3.20;;
6356;SDS011;3211;53.452;-2.264;2022-12-31T00:04:18;16.73;;;3.50;;
6356;SDS011;3211;53.452;-2.264;2022-12-31T00:06:45;18.43;;;3.87;;
6356;SDS011;3211;53.452;-2.264;2022-12-31T00:09:12;18.80;;;3.40;;
6356;SDS011;3211;53.452;-2.264;2022-12-31T00:11:39;16.47;;;4.47;;
6356;SDS011;3211;53.452;-2.264;2022-12-31T00:14:06;18.40;;;4.67;;
6356;SDS011;3211;53.452;-2.264;2022-12-31T00:16:34;11.50;;;3.27;;
6356;SDS011;3211;53.452;-2.264;2022-12-31T00:19:04;16.37;;;3.23;;
6356;SDS011;3211;53.452;-2.264;2022-12-31T00:21:32;13.37;;;2.57;;
6356;SDS011;3211;53.452;-2.264;2022-12-31T00:24:00;13.17;;;3.20;;
6356;SDS011;3211;53.452;-2.264;2022-12-31T00:26:28;17.77;;;3.23;;
6356;SDS011;3211;53.452;-2.264;2022-12-31T00:28:57;13.40;;;3.77;;
6356;SDS011;3211;53.452;-2.264;2022-12-31T00:31:25;16.27;;;3.27;;
6356;SDS011;3211;53.452;-2.264;2022-12-31T00:33:53;13.60;;;3.40;;
6356;SDS011;3211;53.452;-2.264;2022-12-31T00:36:22;17.90;;;4.83;;
6356;SDS011;3211;53.452;-2.264;2022-12-31T00:38:51;20.10;;;4.30;;
6356;SDS011;3211;53.452;-2.264;2022-12-31T00:41:20;18.83;;;3.63;;
6356;SDS011;3211;53.452;-2.264;2022-12-31T00:43:48;16.87;;;3.40;;
6356;SDS011;3211;53.452;-2.264;2022-12-31T00:46:16;19.33;;;3.97;;
6356;SDS011;3211;53.452;-2.264;2022-12-31T00:48:44;13.77;;;2.63;;
6356;SDS011;3211;53.452;-2.264;2022-12-31T00:51:11;9.53;;;2.30;;
6356;SDS011;3211;53.452;-2.264;2022-12-31T00:53:42;19.13;;;2.53;;
6356;SDS011;3211;53.452;-2.264;2022-12-31T00:56:09;8.93;;;2.77;;
6356;SDS011;3211;53.452;-2.264;2022-12-31T00:58:38;13.73;;;3.90;;
6356;SDS011;3211;53.452;-2.264;2022-12-31T01:01:08;19.97;;;3.60;;
6356;SDS011;3211;53.452;-2.264;2022-12-31T01:03:36;15.77;;;3.30;;
6356;SDS011;3211;53.452;-2.264;2022-12-31T01:06:03;11.43;;;3.20;;
6356;SDS011;3211;53.452;-2.264;2022-12-31T01:08:31;13.10;;;3.90;;
6356;SDS011;3211;53.452;-2.264;2022-12-31T01:10:59;11.33;;;4.23;;
6356;SDS011;3211;53.452;-2.264;2022-12-31T01:13:53;17.33;;;3.30;;
6356;SDS011;3211;53.452;-2.264;2022-12-31T01:16:22;18.43;;;4.07;;
6356;SDS011;3211;53.452;-2.264;2022-12-31T01:18:50;18.47;;;3.27;;
6356;SDS011;3211;53.452;-2.264;2022-12-31T01:21:18;13.60;;;3.57;;
6356;SDS011;3211;53.452;-2.264;2022-12-31T01:23:46;9.33;;;2.80;;
6356;SDS011;3211;53.452;-2.264;2022-12-31T01:26:15;15.23;;;3.17;;
6356;SDS011;3211;53.452;-2.264;2022-12-31T01:28:43;10.63;;;3.17;;
6356;SDS011;3211;53.452;-2.264;2022-12-31T01:31:11;14.10;;;3.30;;
6356;SDS011;3211;53.452;-2.264;2022-12-31T01:33:39;19.90;;;4.07;;
6356;SDS011;3211;53.452;-2.264;2022-12-31T01:36:07;20.37;;;3.30;;
6356;SDS011;3211;53.452;-2.264;2022-12-31T01:38:36;16.70;;;3.23;;
6356;SDS011;3211;53.452;-2.264;2022-12-31T01:41:04;11.20;;;2.60;;
6356;SDS011;3211;53.452;-2.264;2022-12-31T01:46:23;23.23;;;3.63;;
6356;SDS011;3211;53.452;-2.264;2022-12-31T01:48:54;19.90;;;2.90;;
6356;SDS011;3211;53.452;-2.264;2022-12-31T01:51:24;14.43;;;3.17;;
6356;SDS011;3211;53.452;-2.264;2022-12-31T01:53:53;17.33;;;3.00;;
6356;SDS011;3211;53.452;-2.264;2022-12-31T01:56:21;13.13;;;2.73;;
6356;SDS011;3211;53.452;-2.264;2022-12-31T01:58:51;18.90;;;2.87;;
6356;SDS011;3211;53.452;-2.264;2022-12-31T02:01:21;23.03;;;4.40;;
6356;SDS011;3211;53.452;-2.264;2022-12-31T02:03:51;20.17;;;3.53;;
6356;SDS011;3211;53.452;-2.264;2022-12-31T02:06:20;14.33;;;3.77;;
6356;SDS011;3211;53.452;-2.264;2022-12-31T02:08:50;14.53;;;4.43;;
6356;SDS011;3211;53.452;-2.264;2022-12-31T02:11:19;15.23;;;2.63;;
6356;SDS011;3211;53.452;-2.264;2022-12-31T02:13:49;23.70;;;3.60;;
6356;SDS011;3211;53.452;-2.264;2022-12-31T02:16:20;24.60;;;3.47;;
6356;SDS011;3211;53.452;-2.264;2022-12-31T02:18:56;8.97;;;2.90;;
6356;SDS011;3211;53.452;-2.264;2022-12-31T02:21:38;17.77;;;3.47;;
6356;SDS011;3211;53.452;-2.264;2022-12-31T02:24:25;16.70;;;3.50;;
6356;SDS011;3211;53.452;-2.264;2022-12-31T02:27:11;15.10;;;3.13;;
6356;SDS011;3211;53.452;-2.264;2022-12-31T02:32:46;14.97;;;3.93;;
6356;SDS011;3211;53.452;-2.264;2022-12-31T02:35:28;13.93;;;3.00;;
6356;SDS011;3211;53.452;-2.264;2022-12-31T02:38:00;9.07;;;2.60;;
6356;SDS011;3211;53.452;-2.264;2022-12-31T02:40:32;11.80;;;3.13;;
6356;SDS011;3211;53.452;-2.264;2022-12-31T02:43:00;14.83;;;3.10;;
6356;SDS011;3211;53.452;-2.264;2022-12-31T02:45:30;15.70;;;3.57;;
6356;SDS011;3211;53.452;-2.264;2022-12-31T02:48:04;9.33;;;2.53;;
6356;SDS011;3211;53.452;-2.264;2022-12-31T02:50:50;5.57;;;2.30;;
6356;SDS011;3211;53.452;-2.264;2022-12-31T02:53:29;15.83;;;3.10;;
6356;SDS011;3211;53.452;-2.264;2022-12-31T02:56:12;11.93;;;3.17;;
6356;SDS011;3211;53.452;-2.264;2022-12-31T02:58:47;18.30;;;3.23;;
6356;SDS011;3211;53.452;-2.264;2022-12-31T03:01:42;16.40;;;3.17;;
6356;SDS011;3211;53.452;-2.264;2022-12-31T03:04:31;15.60;;;2.90;;
6356;SDS011;3211;53.452;-2.264;2022-12-31T03:07:01;15.37;;;3.40;;
6356;SDS011;3211;53.452;-2.264;2022-12-31T03:09:33;14.97;;;2.63;;
6356;SDS011;3211;53.452;-2.264;2022-12-31T03:12:01;10.13;;;3.00;;
6356;SDS011;3211;53.452;-2.264;2022-12-31T03:14:47;12.60;;;3.43;;
6356;SDS011;3211;53.452;-2.264;2022-12-31T03:17:15;16.37;;;3.53;;
6356;SDS011;3211;53.452;-2.264;2022-12-31T03:19:42;10.37;;;2.60;;
6356;SDS011;3211;53.452;-2.264;2022-12-31T03:22:46;12.23;;;2.73;;
6356;SDS011;3211;53.452;-2.264;2022-12-31T03:25:14;9.57;;;2.47;;
6356;SDS011;3211;53.452;-2.264;2022-12-31T03:27:57;11.07;;;2.20;;
6356;SDS011;3211;53.452;-2.264;2022-12-31T03:30:24;8.53;;;2.27;;
6356;SDS011;3211;53.452;-2.264;2022-12-31T03:32:53;10.67;;;2.67;;
6356;SDS011;3211;53.452;-2.264;2022-12-31T03:35:21;8.07;;;2.40;;
6356;SDS011;3211;53.452;-2.264;2022-12-31T03:38:08;7.83;;;2.87;;
6356;SDS011;3211;53.452;-2.264;2022-12-31T03:40:36;8.30;;;2.70;;
6356;SDS011;3211;53.452;-2.264;2022-12-31T03:43:04;6.00;;;1.90;;
6356;SDS011;3211;53.452;-2.264;2022-12-31T03:45:34;12.07;;;2.50;;
6356;SDS011;3211;53.452;-2.264;2022-12-31T03:48:04;5.50;;;2.17;;
6356;SDS011;3211;53.452;-2.264;2022-12-31T03:50:33;7.40;;;2.10;;
6356;SDS011;3211;53.452;-2.264;2022-12-31T03:53:00;6.40;;;1.90;;
6356;SDS011;3211;53.452;-2.264;2022-12-31T03:55:30;6.63;;;2.17;;
6356;SDS011;3211;53.452;-2.264;2022-12-31T03:57:57;7.10;;;2.00;;
6356;SDS011;3211;53.452;-2.264;2022-12-31T04:00:27;5.03;;;1.40;;
6356;SDS011;3211;53.452;-2.264;2022-12-31T04:02:54;7.23;;;1.90;;
6356;SDS011;3211;53.452;-2.264;2022-12-31T04:05:25;6.83;;;1.73;;
6356;SDS011;3211;53.452;-2.264;2022-12-31T04:07:52;5.97;;;2.00;;
6356;SDS011;3211;53.452;-2.264;2022-12-31T04:10:19;5.63;;;1.67;;
6356;SDS011;3211;53.452;-2.264;2022-12-31T04:13:05;5.10;;;1.47;;
6356;SDS011;3211;53.452;-2.264;2022-12-31T04:15:32;8.27;;;1.67;;
6356;SDS011;3211;53.452;-2.264;2022-12-31T04:17:59;5.90;;;1.70;;
6356;SDS011;3211;53.452;-2.264;2022-12-31T04:20:30;8.03;;;1.97;;
6356;SDS011;3211;53.452;-2.264;2022-12-31T04:22:57;3.80;;;1.50;;
6356;SDS011;3211;53.452;-2.264;2022-12-31T04:25:27;4.80;;;1.70;;
6356;SDS011;3211;53.452;-2.264;2022-12-31T04:27:54;5.43;;;1.83;;
6356;SDS011;3211;53.452;-2.264;2022-12-31T04:30:20;4.50;;;1.70;;
6356;SDS011;3211;53.452;-2.264;2022-12-31T04:32:47;3.00;;;1.30;;
6356;SDS011;3211;53.452;-2.264;2022-12-31T04:35:14;6.53;;;1.53;;
6356;SDS011;3211;53.452;-2.264;2022-12-31T04:38:01;5.80;;;2.10;;
6356;SDS011;3211;53.452;-2.264;2022-12-31T04:40:29;4.03;;;1.60;;
6356;SDS011;3211;53.452;-2.264;2022-12-31T04:42:56;6.40;;;1.80;;
6356;SDS011;3211;53.452;-2.264;2022-12-31T04:45:26;8.93;;;1.40;;
6356;SDS011;3211;53.452;-2.264;2022-12-31T04:47:52;4.43;;;2.00;;
6356;SDS011;3211;53.452;-2.264;2022-12-31T04:50:22;4.70;;;1.70;;
6356;SDS011;3211;53.452;-2.264;2022-12-31T04:52:49;3.10;;;1.17;;
6356;SDS011;3211;53.452;-2.264;2022-12-31T04:55:17;7.53;;;1.60;;
6356;SDS011;3211;53.452;-2.264;2022-12-31T04:57:44;2.67;;;1.40;;
6356;SDS011;3211;53.452;-2.264;2022-12-31T05:00:11;5.00;;;1.50;;
6356;SDS011;3211;53.452;-2.264;2022-12-31T05:02:39;2.93;;;1.47;;
6356;SDS011;3211;53.452;-2.264;2022-12-31T05:05:08;3.80;;;1.70;;
6356;SDS011;3211;53.452;-2.264;2022-12-31T05:07:35;4.60;;;1.50;;
6356;SDS011;3211;53.452;-2.264;2022-12-31T05:10:05;3.13;;;1.80;;
6356;SDS011;3211;53.452;-2.264;2022-12-31T05:12:34;2.70;;;1.60;;
6356;SDS011;3211;53.452;-2.264;2022-12-31T05:15:04;3.13;;;1.40;;
6356;SDS011;3211;53.452;-2.264;2022-12-31T05:17:32;4.60;;;1.70;;
6356;SDS011;3211;53.452;-2.264;2022-12-31T05:20:02;3.27;;;1.63;;
6356;SDS011;3211;53.452;-2.264;2022-12-31T05:22:30;2.60;;;1.60;;
6356;SDS011;3211;53.452;-2.264;2022-12-31T05:24:59;5.90;;;1.80;;
6356;SDS011;3211;53.452;-2.264;2022-12-31T05:27:27;4.87;;;1.77;;
6356;SDS011;3211;53.452;-2.264;2022-12-31T05:29:56;5.13;;;1.70;;
6356;SDS011;3211;53.452;-2.264;2022-12-31T05:32:23;7.20;;;3.33;;
6356;SDS011;3211;53.452;-2.264;2022-12-31T05:34:53;11.00;;;3.60;;
6356;SDS011;3211;53.452;-2.264;2022-12-31T05:37:21;11.30;;;2.93;;
6356;SDS011;3211;53.452;-2.264;2022-12-31T05:39:51;6.27;;;3.00;;
6356;SDS011;3211;53.452;-2.264;2022-12-31T05:42:17;6.20;;;2.73;;
6356;SDS011;3211;53.452;-2.264;2022-12-31T05:44:47;3.00;;;2.10;;
6356;SDS011;3211;53.452;-2.264;2022-12-31T05:47:16;5.63;;;1.73;;
6356;SDS011;3211;53.452;-2.264;2022-12-31T05:49:43;3.80;;;1.80;;
6356;SDS011;3211;53.452;-2.264;2022-12-31T05:52:29;3.93;;;1.67;;
6356;SDS011;3211;53.452;-2.264;2022-12-31T05:54:56;4.47;;;2.03;;
6356;SDS011;3211;53.452;-2.264;2022-12-31T05:57:23;6.67;;;1.90;;
6356;SDS011;3211;53.452;-2.264;2022-12-31T05:59:52;3.10;;;1.63;;
6356;SDS011;3211;53.452;-2.264;2022-12-31T06:02:21;4.40;;;1.90;;
6356;SDS011;3211;53.452;-2.264;2022-12-31T06:04:51;3.60;;;1.80;;
6356;SDS011;3211;53.452;-2.264;2022-12-31T06:07:18;5.63;;;2.00;;
6356;SDS011;3211;53.452;-2.264;2022-12-31T06:09:47;6.17;;;1.87;;
6356;SDS011;3211;53.452;-2.264;2022-12-31T06:12:14;2.93;;;1.40;;
6356;SDS011;3211;53.452;-2.264;2022-12-31T06:14:42;3.23;;;1.80;;
6356;SDS011;3211;53.452;-2.264;2022-12-31T06:17:29;1.60;;;1.20;;
6356;SDS011;3211;53.452;-2.264;2022-12-31T06:19:57;1.90;;;1.20;;
6356;SDS011;3211;53.452;-2.264;2022-12-31T06:22:24;2.63;;;1.30;;
6356;SDS011;3211;53.452;-2.264;2022-12-31T06:24:54;2.17;;;1.30;;
6356;SDS011;3211;53.452;-2.264;2022-12-31T06:27:21;3.33;;;1.30;;
6356;SDS011;3211;53.452;-2.264;2022-12-31T06:29:48;2.10;;;1.20;;
6356;SDS011;3211;53.452;-2.264;2022-12-31T06:32:15;1.43;;;1.00;;
6356;SDS011;3211;53.452;-2.264;2022-12-31T06:34:43;3.17;;;1.43;;
6356;SDS011;3211;53.452;-2.264;2022-12-31T06:37:10;2.33;;;1.30;;
6356;SDS011;3211;53.452;-2.264;2022-12-31T06:39:37;3.00;;;1.40;;
6356;SDS011;3211;53.452;-2.264;2022-12-31T06:42:04;2.03;;;1.23;;
6356;SDS011;3211;53.452;-2.264;2022-12-31T06:44:31;4.70;;;1.33;;
6356;SDS011;3211;53.452;-2.264;2022-12-31T06:46:58;3.10;;;1.37;;
6356;SDS011;3211;53.452;-2.264;2022-12-31T06:49:25;1.53;;;1.40;;
6356;SDS011;3211;53.452;-2.264;2022-12-31T06:51:53;2.13;;;1.20;;
6356;SDS011;3211;53.452;-2.264;2022-12-31T06:54:20;2.43;;;1.40;;
6356;SDS011;3211;53.452;-2.264;2022-12-31T06:56:47;2.17;;;1.30;;
6356;SDS011;3211;53.452;-2.264;2022-12-31T06:59:24;2.63;;;1.53;;
6356;SDS011;3211;53.452;-2.264;2022-12-31T07:02:04;1.90;;;1.30;;
6356;SDS011;3211;53.452;-2.264;2022-12-31T07:07:40;2.63;;;1.43;;
6356;SDS011;3211;53.452;-2.264;2022-12-31T07:10:16;3.37;;;2.07;;
6356;SDS011;3211;53.452;-2.264;2022-12-31T07:12:54;2.23;;;1.70;;
6356;SDS011;3211;53.452;-2.264;2022-12-31T07:15:33;2.20;;;1.53;;
6356;SDS011;3211;53.452;-2.264;2022-12-31T07:18:10;2.50;;;1.77;;
6356;SDS011;3211;53.452;-2.264;2022-12-31T07:20:46;4.10;;;2.23;;
6356;SDS011;3211;53.452;-2.264;2022-12-31T07:23:15;3.47;;;2.50;;
6356;SDS011;3211;53.452;-2.264;2022-12-31T07:25:43;4.37;;;2.27;;
6356;SDS011;3211;53.452;-2.264;2022-12-31T07:28:19;3.23;;;2.33;;
6356;SDS011;3211;53.452;-2.264;2022-12-31T07:30:58;3.50;;;2.30;;
6356;SDS011;3211;53.452;-2.264;2022-12-31T07:33:35;3.80;;;2.33;;
6356;SDS011;3211;53.452;-2.264;2022-12-31T07:36:15;2.67;;;2.40;;
6356;SDS011;3211;53.452;-2.264;2022-12-31T07:38:55;4.63;;;2.90;;
6356;SDS011;3211;53.452;-2.264;2022-12-31T07:41:33;4.40;;;2.60;;
6356;SDS011;3211;53.452;-2.264;2022-12-31T07:44:12;2.60;;;2.40;;
6356;SDS011;3211;53.452;-2.264;2022-12-31T07:46:47;4.60;;;2.87;;
6356;SDS011;3211;53.452;-2.264;2022-12-31T07:49:21;3.10;;;2.80;;
6356;SDS011;3211;53.452;-2.264;2022-12-31T07:51:50;4.33;;;3.03;;
6356;SDS011;3211;53.452;-2.264;2022-12-31T07:54:19;4.50;;;2.97;;
6356;SDS011;3211;53.452;-2.264;2022-12-31T07:56:47;5.53;;;2.67;;
6356;SDS011;3211;53.452;-2.264;2022-12-31T07:59:16;5.10;;;3.27;;
6356;SDS011;3211;53.452;-2.264;2022-12-31T08:01:55;9.47;;;4.00;;
6356;SDS011;3211;53.452;-2.264;2022-12-31T08:04:26;7.20;;;3.10;;
6356;SDS011;3211;53.452;-2.264;2022-12-31T08:07:01;4.47;;;2.77;;
6356;SDS011;3211;53.452;-2.264;2022-12-31T08:09:40;5.43;;;3.40;;
6356;SDS011;3211;53.452;-2.264;2022-12-31T08:12:12;5.90;;;3.50;;
6356;SDS011;3211;53.452;-2.264;2022-12-31T08:14:41;5.70;;;3.50;;
6356;SDS011;3211;53.452;-2.264;2022-12-31T08:17:11;4.27;;;3.27;;
6356;SDS011;3211;53.452;-2.264;2022-12-31T08:19:39;4.03;;;3.60;;
6356;SDS011;3211;53.452;-2.264;2022-12-31T08:22:11;5.90;;;4.30;;
6356;SDS011;3211;53.452;-2.264;2022-12-31T08:24:54;5.87;;;3.93;;
6356;SDS011;3211;53.452;-2.264;2022-12-31T08:27:34;7.53;;;4.43;;
6356;SDS011;3211;53.452;-2.264;2022-12-31T08:30:08;7.30;;;3.90;;
6356;SDS011;3211;53.452;-2.264;2022-12-31T08:32:39;6.23;;;4.77;;
6356;SDS011;3211;53.452;-2.264;2022-12-31T08:35:15;5.50;;;4.40;;
6356;SDS011;3211;53.452;-2.264;2022-12-31T08:37:53;10.33;;;4.33;;
6356;SDS011;3211;53.452;-2.264;2022-12-31T08:40:27;6.43;;;4.50;;
6356;SDS011;3211;53.452;-2.264;2022-12-31T08:43:10;6.90;;;5.10;;
6356;SDS011;3211;53.452;-2.264;2022-12-31T08:45:51;8.20;;;5.03;;
6356;SDS011;3211;53.452;-2.264;2022-12-31T08:48:21;7.73;;;5.00;;
6356;SDS011;3211;53.452;-2.264;2022-12-31T08:50:53;9.83;;;4.50;;
6356;SDS011;3211;53.452;-2.264;2022-12-31T08:53:21;8.70;;;5.70;;
6356;SDS011;3211;53.452;-2.264;2022-12-31T08:55:51;10.30;;;5.70;;
6356;SDS011;3211;53.452;-2.264;2022-12-31T08:58:27;10.03;;;5.67;;
6356;SDS011;3211;53.452;-2.264;2022-12-31T09:01:02;10.73;;;5.37;;
6356;SDS011;3211;53.452;-2.264;2022-12-31T09:03:34;10.80;;;5.70;;
6356;SDS011;3211;53.452;-2.264;2022-12-31T09:06:09;6.13;;;4.83;;
6356;SDS011;3211;53.452;-2.264;2022-12-31T09:08:43;9.67;;;5.80;;
6356;SDS011;3211;53.452;-2.264;2022-12-31T09:11:22;8.83;;;5.50;;
6356;SDS011;3211;53.452;-2.264;2022-12-31T09:13:59;7.83;;;5.63;;
6356;SDS011;3211;53.452;-2.264;2022-12-31T09:16:43;6.73;;;4.70;;
6356;SDS011;3211;53.452;-2.264;2022-12-31T09:19:15;8.10;;;5.60;;
6356;SDS011;3211;53.452;-2.264;2022-12-31T09:21:42;8.50;;;5.37;;
6356;SDS011;3211;53.452;-2.264;2022-12-31T09:24:10;9.20;;;5.63;;
6356;SDS011;3211;53.452;-2.264;2022-12-31T09:26:42;7.80;;;5.37;;
6356;SDS011;3211;53.452;-2.264;2022-12-31T09:29:19;8.60;;;5.13;;
6356;SDS011;3211;53.452;-2.264;2022-12-31T09:31:55;6.90;;;5.07;;
6356;SDS011;3211;53.452;-2.264;2022-12-31T09:34:29;10.93;;;5.67;;
6356;SDS011;3211;53.452;-2.264;2022-12-31T09:37:02;7.47;;;5.53;;
6356;SDS011;3211;53.452;-2.264;2022-12-31T09:39:36;6.87;;;4.90;;
6356;SDS011;3211;53.452;-2.264;2022-12-31T09:45:20;6.20;;;5.03;;
6356;SDS011;3211;53.452;-2.264;2022-12-31T09:48:03;8.63;;;5.30;;
6356;SDS011;3211;53.452;-2.264;2022-12-31T09:50:56;7.30;;;5.07;;
6356;SDS011;3211;53.452;-2.264;2022-12-31T09:53:34;6.90;;;4.50;;
6356;SDS011;3211;53.452;-2.264;2022-12-31T09:56:09;4.77;;;3.93;;
6356;SDS011;3211;53.452;-2.264;2022-12-31T09:58:43;5.37;;;4.40;;
6356;SDS011;3211;53.452;-2.264;2022-12-31T10:01:20;7.13;;;4.80;;
6356;SDS011;3211;53.452;-2.264;2022-12-31T10:04:01;6.90;;;3.97;;
6356;SDS011;3211;53.452;-2.264;2022-12-31T10:06:47;4.20;;;3.30;;
6356;SDS011;3211;53.452;-2.264;2022-12-31T10:09:32;5.60;;;3.27;;
6356;SDS011;3211;53.452;-2.264;2022-12-31T10:12:15;5.23;;;3.30;;
6356;SDS011;3211;53.452;-2.264;2022-12-31T10:15:01;7.03;;;3.67;;
6356;SDS011;3211;53.452;-2.264;2022-12-31T10:17:46;4.53;;;3.20;;
6356;SDS011;3211;53.452;-2.264;2022-12-31T10:26:15;9.30;;;2.70;;
6356;SDS011;3211;53.452;-2.264;2022-12-31T10:28:51;4.80;;;3.43;;
6356;SDS011;3211;53.452;-2.264;2022-12-31T10:31:34;5.40;;;3.10;;
6356;SDS011;3211;53.452;-2.264;2022-12-31T10:34:11;5.77;;;2.90;;
6356;SDS011;3211;53.452;-2.264;2022-12-31T10:36:46;3.80;;;3.13;;
6356;SDS011;3211;53.452;-2.264;2022-12-31T10:39:21;7.60;;;2.83;;
6356;SDS011;3211;53.452;-2.264;2022-12-31T10:42:14;5.63;;;3.67;;
6356;SDS011;3211;53.452;-2.264;2022-12-31T10:48:53;3.90;;;2.63;;
6356;SDS011;3211;53.452;-2.264;2022-12-31T10:54:52;5.50;;;3.37;;
6356;SDS011;3211;53.452;-2.264;2022-12-31T11:01:03;5.97;;;4.00;;
6356;SDS011;3211;53.452;-2.264;2022-12-31T11:09:58;5.80;;;3.40;;
6356;SDS011;3211;53.452;-2.264;2022-12-31T11:12:59;4.67;;;3.50;;
6356;SDS011;3211;53.452;-2.264;2022-12-31T11:18:56;9.97;;;4.10;;
6356;SDS011;3211;53.452;-2.264;2022-12-31T11:21:31;6.10;;;4.07;;
6356;SDS011;3211;53.452;-2.264;2022-12-31T11:24:14;4.50;;;4.03;;
6356;SDS011;3211;53.452;-2.264;2022-12-31T11:26:54;7.40;;;5.00;;
6356;SDS011;3211;53.452;-2.264;2022-12-31T11:29:38;5.93;;;5.10;;
6356;SDS011;3211;53.452;-2.264;2022-12-31T11:32:30;9.03;;;4.60;;
6356;SDS011;3211;53.452;-2.264;2022-12-31T11:35:14;6.63;;;5.50;;
6356;SDS011;3211;53.452;-2.264;2022-12-31T11:37:49;5.43;;;4.93;;
6356;SDS011;3211;53.452;-2.264;2022-12-31T11:43:20;9.30;;;5.67;;
6356;SDS011;3211;53.452;-2.264;2022-12-31T11:45:58;6.70;;;5.00;;
6356;SDS011;3211;53.452;-2.264;2022-12-31T11:48:38;8.00;;;5.30;;
6356;SDS011;3211;53.452;-2.264;2022-12-31T11:51:20;7.33;;;4.00;;
6356;SDS011;3211;53.452;-2.264;2022-12-31T11:57:07;13.30;;;5.50;;
6356;SDS011;3211;53.452;-2.264;2022-12-31T11:59:41;8.70;;;5.10;;
6356;SDS011;3211;53.452;-2.264;2022-12-31T12:02:13;8.07;;;5.50;;
6356;SDS011;3211;53.452;-2.264;2022-12-31T12:04:49;5.60;;;5.00;;
6356;SDS011;3211;53.452;-2.264;2022-12-31T12:07:17;7.40;;;6.10;;
6356;SDS011;3211;53.452;-2.264;2022-12-31T12:09:46;6.97;;;6.10;;
6356;SDS011;3211;53.452;-2.264;2022-12-31T12:12:15;12.03;;;7.03;;
6356;SDS011;3211;53.452;-2.264;2022-12-31T12:14:42;7.80;;;6.03;;
6356;SDS011;3211;53.452;-2.264;2022-12-31T12:17:15;7.53;;;5.67;;
6356;SDS011;3211;53.452;-2.264;2022-12-31T12:19:53;7.13;;;5.93;;
6356;SDS011;3211;53.452;-2.264;2022-12-31T12:22:22;8.40;;;6.67;;
6356;SDS011;3211;53.452;-2.264;2022-12-31T12:24:52;8.50;;;5.80;;
6356;SDS011;3211;53.452;-2.264;2022-12-31T12:27:21;7.70;;;5.57;;
6356;SDS011;3211;53.452;-2.264;2022-12-31T12:29:49;5.80;;;4.93;;
6356;SDS011;3211;53.452;-2.264;2022-12-31T12:32:17;7.90;;;5.13;;
6356;SDS011;3211;53.452;-2.264;2022-12-31T12:34:46;5.60;;;4.93;;
6356;SDS011;3211;53.452;-2.264;2022-12-31T12:40:01;5.90;;;4.63;;
6356;SDS011;3211;53.452;-2.264;2022-12-31T12:42:30;5.77;;;4.63;;
6356;SDS011;3211;53.452;-2.264;2022-12-31T12:45:00;9.27;;;4.97;;
6356;SDS011;3211;53.452;-2.264;2022-12-31T12:47:29;7.00;;;4.90;;
6356;SDS011;3211;53.452;-2.264;2022-12-31T12:49:57;6.33;;;4.77;;
6356;SDS011;3211;53.452;-2.264;2022-12-31T12:55:27;4.30;;;3.90;;
6356;SDS011;3211;53.452;-2.264;2022-12-31T12:58:02;9.30;;;3.67;;
6356;SDS011;3211;53.452;-2.264;2022-12-31T13:00:39;5.80;;;3.80;;
6356;SDS011;3211;53.452;-2.264;2022-12-31T13:03:15;5.83;;;3.90;;
6356;SDS011;3211;53.452;-2.264;2022-12-31T13:06:03;4.43;;;3.30;;
6356;SDS011;3211;53.452;-2.264;2022-12-31T13:08:46;6.57;;;4.00;;
6356;SDS011;3211;53.452;-2.264;2022-12-31T13:11:28;7.13;;;4.03;;
6356;SDS011;3211;53.452;-2.264;2022-12-31T13:14:02;5.20;;;3.73;;
6356;SDS011;3211;53.452;-2.264;2022-12-31T13:16:42;10.53;;;3.20;;
6356;SDS011;3211;53.452;-2.264;2022-12-31T13:19:15;5.97;;;3.10;;
6356;SDS011;3211;53.452;-2.264;2022-12-31T13:21:48;5.37;;;2.93;;
6356;SDS011;3211;53.452;-2.264;2022-12-31T13:24:25;5.70;;;2.70;;
6356;SDS011;3211;53.452;-2.264;2022-12-31T13:27:04;9.97;;;2.57;;
6356;SDS011;3211;53.452;-2.264;2022-12-31T13:29:35;8.63;;;3.33;;
6356;SDS011;3211;53.452;-2.264;2022-12-31T13:32:05;8.67;;;2.70;;
6356;SDS011;3211;53.452;-2.264;2022-12-31T13:34:35;6.80;;;2.60;;
6356;SDS011;3211;53.452;-2.264;2022-12-31T13:37:10;8.67;;;2.43;;
6356;SDS011;3211;53.452;-2.264;2022-12-31T13:39:47;9.47;;;2.40;;
6356;SDS011;3211;53.452;-2.264;2022-12-31T13:42:21;14.30;;;3.10;;
6356;SDS011;3211;53.452;-2.264;2022-12-31T13:44:52;9.70;;;2.27;;
6356;SDS011;3211;53.452;-2.264;2022-12-31T13:47:26;14.40;;;2.90;;
6356;SDS011;3211;53.452;-2.264;2022-12-31T13:49:58;14.03;;;3.43;;
6356;SDS011;3211;53.452;-2.264;2022-12-31T13:52:32;10.60;;;4.20;;
6356;SDS011;3211;53.452;-2.264;2022-12-31T13:55:03;12.00;;;3.83;;
6356;SDS011;3211;53.452;-2.264;2022-12-31T13:57:41;15.87;;;3.47;;
6356;SDS011;3211;53.452;-2.264;2022-12-31T14:00:16;20.10;;;4.50;;
6356;SDS011;3211;53.452;-2.264;2022-12-31T14:02:49;16.00;;;3.97;;
6356;SDS011;3211;53.452;-2.264;2022-12-31T14:05:23;10.40;;;3.63;;
6356;SDS011;3211;53.452;-2.264;2022-12-31T14:07:56;16.67;;;3.97;;
6356;SDS011;3211;53.452;-2.264;2022-12-31T14:10:27;20.40;;;3.73;;
6356;SDS011;3211;53.452;-2.264;2022-12-31T14:13:06;13.27;;;4.67;;
6356;SDS011;3211;53.452;-2.264;2022-12-31T14:15:55;15.03;;;4.00;;
6356;SDS011;3211;53.452;-2.264;2022-12-31T14:18:34;16.13;;;3.57;;
6356;SDS011;3211;53.452;-2.264;2022-12-31T14:21:10;12.27;;;3.30;;
6356;SDS011;3211;53.452;-2.264;2022-12-31T14:23:44;16.60;;;4.60;;
6356;SDS011;3211;53.452;-2.264;2022-12-31T14:26:18;18.93;;;3.93;;
6356;SDS011;3211;53.452;-2.264;2022-12-31T14:28:55;24.33;;;5.10;;
6356;SDS011;3211;53.452;-2.264;2022-12-31T14:31:31;15.87;;;3.63;;
6356;SDS011;3211;53.452;-2.264;2022-12-31T14:34:11;12.00;;;3.70;;
6356;SDS011;3211;53.452;-2.264;2022-12-31T14:36:47;24.03;;;3.77;;
6356;SDS011;3211;53.452;-2.264;2022-12-31T14:39:26;22.73;;;5.10;;
6356;SDS011;3211;53.452;-2.264;2022-12-31T14:42:06;19.90;;;4.23;;
6356;SDS011;3211;53.452;-2.264;2022-12-31T14:44:45;19.50;;;4.60;;
6356;SDS011;3211;53.452;-2.264;2022-12-31T14:47:25;18.57;;;4.03;;
6356;SDS011;3211;53.452;-2.264;2022-12-31T14:50:05;17.23;;;3.70;;
6356;SDS011;3211;53.452;-2.264;2022-12-31T14:52:46;13.70;;;4.00;;
6356;SDS011;3211;53.452;-2.264;2022-12-31T14:55:20;19.97;;;3.90;;
6356;SDS011;3211;53.452;-2.264;2022-12-31T14:57:50;14.73;;;3.60;;
6356;SDS011;3211;53.452;-2.264;2022-12-31T15:00:23;17.53;;;3.77;;
6356;SDS011;3211;53.452;-2.264;2022-12-31T15:02:56;15.00;;;3.93;;
6356;SDS011;3211;53.452;-2.264;2022-12-31T15:05:25;16.40;;;4.03;;
6356;SDS011;3211;53.452;-2.264;2022-12-31T15:07:58;21.50;;;3.80;;
6356;SDS011;3211;53.452;-2.264;2022-12-31T15:10:59;13.43;;;3.67;;
6356;SDS011;3211;53.452;-2.264;2022-12-31T15:13:40;18.97;;;4.53;;
6356;SDS011;3211;53.452;-2.264;2022-12-31T15:16:35;12.43;;;4.00;;
6356;SDS011;3211;53.452;-2.264;2022-12-31T15:19:18;15.77;;;4.07;;
6356;SDS011;3211;53.452;-2.264;2022-12-31T15:22:08;13.00;;;3.10;;
6356;SDS011;3211;53.452;-2.264;2022-12-31T15:24:45;22.87;;;4.17;;
6356;SDS011;3211;53.452;-2.264;2022-12-31T15:27:21;17.50;;;3.40;;
6356;SDS011;3211;53.452;-2.264;2022-12-31T15:29:54;14.90;;;3.80;;
6356;SDS011;3211;53.452;-2.264;2022-12-31T15:32:24;18.93;;;3.37;;
6356;SDS011;3211;53.452;-2.264;2022-12-31T15:35:00;12.43;;;3.90;;
6356;SDS011;3211;53.452;-2.264;2022-12-31T15:37:29;11.87;;;3.20;;
6356;SDS011;3211;53.452;-2.264;2022-12-31T15:40:15;9.10;;;3.00;;
6356;SDS011;3211;53.452;-2.264;2022-12-31T15:42:45;16.73;;;4.10;;
6356;SDS011;3211;53.452;-2.264;2022-12-31T15:45:15;16.00;;;3.70;;
6356;SDS011;3211;53.452;-2.264;2022-12-31T15:47:49;14.20;;;4.53;;
6356;SDS011;3211;53.452;-2.264;2022-12-31T15:50:21;10.73;;;3.40;;
6356;SDS011;3211;53.452;-2.264;2022-12-31T15:52:51;12.07;;;3.10;;
6356;SDS011;3211;53.452;-2.264;2022-12-31T15:55:22;8.70;;;3.50;;
6356;SDS011;3211;53.452;-2.264;2022-12-31T15:57:52;11.53;;;3.60;;
6356;SDS011;3211;53.452;-2.264;2022-12-31T16:00:24;18.43;;;3.40;;
6356;SDS011;3211;53.452;-2.264;2022-12-31T16:03:01;17.93;;;4.70;;
6356;SDS011;3211;53.452;-2.264;2022-12-31T16:05:28;13.70;;;4.07;;
6356;SDS011;3211;53.452;-2.264;2022-12-31T16:08:00;9.83;;;3.13;;
6356;SDS011;3211;53.452;-2.264;2022-12-31T16:10:28;10.90;;;4.37;;
6356;SDS011;3211;53.452;-2.264;2022-12-31T16:12:56;10.23;;;4.30;;
6356;SDS011;3211;53.452;-2.264;2022-12-31T16:15:25;18.13;;;4.77;;
6356;SDS011;3211;53.452;-2.264;2022-12-31T16:17:58;12.27;;;4.93;;
6356;SDS011;3211;53.452;-2.264;2022-12-31T16:20:29;13.13;;;4.27;;
6356;SDS011;3211;53.452;-2.264;2022-12-31T16:22:57;13.70;;;4.57;;